createdAt,value
2018-01-29T00:00:19.707Z,75.26
2018-01-29T00:02:48.979Z,76.00
2018-01-29T00:05:17.647Z,76.60
2018-01-29T00:07:46.205Z,76.26
2018-01-29T00:10:14.708Z,75.67
2018-01-29T00:12:43.347Z,75.47
2018-01-29T00:15:12.696Z,75.83
2018-01-29T00:17:41.255Z,75.79
2018-01-29T00:20:09.806Z,75.05
2018-01-29T00:22:39.073Z,75.53
2018-01-29T00:25:07.636Z,75.49
2018-01-29T00:27:36.175Z,76.89
2018-01-29T00:30:04.685Z,75.61
2018-01-29T00:32:33.236Z,75.89
2018-01-29T00:35:02.612Z,76.17
2018-01-29T00:37:31.944Z,76.66
2018-01-29T00:40:00.508Z,75.62
2018-01-29T00:42:30.222Z,75.53
2018-01-29T00:44:59.545Z,75.74
2018-01-29T00:47:28.048Z,75.57
2018-01-29T00:49:56.601Z,75.56
2018-01-29T00:52:25.127Z,77.05
2018-01-29T00:54:53.664Z,77.08
2018-01-29T00:57:22.427Z,76.93
2018-01-29T00:59:50.927Z,76.21
2018-01-29T01:02:20.249Z,75.36
2018-01-29T01:04:48.792Z,74.71
2018-01-29T01:07:17.291Z,74.83
2018-01-29T01:09:46.620Z,75.44
2018-01-29T01:12:15.466Z,74.36
2018-01-29T01:14:43.973Z,75.59
2018-01-29T01:17:13.235Z,75.53
2018-01-29T01:19:41.871Z,76.13
2018-01-29T01:22:10.452Z,75.13
2018-01-29T01:24:38.946Z,75.74
2018-01-29T01:27:07.551Z,75.54
2018-01-29T01:29:36.055Z,75.09
2018-01-29T01:32:04.612Z,74.48
2018-01-29T01:34:33.335Z,74.87
2018-01-29T01:37:01.885Z,75.88
2018-01-29T01:39:30.366Z,74.64
2018-01-29T01:41:58.895Z,74.31
2018-01-29T01:44:28.147Z,73.14
2018-01-29T01:46:56.619Z,72.77
2018-01-29T01:49:31.954Z,72.57
2018-01-29T01:52:00.515Z,72.79
2018-01-29T01:54:29.060Z,71.99
2018-01-29T01:56:57.852Z,71.95
2018-01-29T01:59:27.846Z,72.85
2018-01-29T02:01:56.346Z,72.51
2018-01-29T02:04:24.889Z,72.28
2018-01-29T02:06:53.435Z,71.54
2018-01-29T02:09:22.703Z,72.10
2018-01-29T02:11:51.235Z,72.03
2018-01-29T02:14:19.726Z,71.11
2018-01-29T02:16:48.207Z,71.86
2018-01-29T02:19:16.739Z,71.92
2018-01-29T02:21:45.247Z,70.96
2018-01-29T02:24:14.503Z,70.95
2018-01-29T02:26:43.075Z,72.58
2018-01-29T02:29:11.559Z,73.28
2018-01-29T02:31:40.051Z,73.60
2018-01-29T02:34:08.589Z,73.13
2018-01-29T02:36:37.101Z,72.56
2018-01-29T02:39:05.611Z,72.07
2018-01-29T02:41:34.163Z,71.74
2018-01-29T02:44:02.729Z,71.21
2018-01-29T02:46:31.292Z,71.23
2018-01-29T02:48:59.855Z,71.31
2018-01-29T02:51:29.123Z,71.19
2018-01-29T02:53:57.627Z,72.00
2018-01-29T02:56:27.092Z,72.62
2018-01-29T02:58:55.591Z,72.75
2018-01-29T03:01:24.846Z,72.02
2018-01-29T03:03:53.703Z,71.79
2018-01-29T03:06:22.260Z,71.63
2018-01-29T03:08:50.746Z,72.11
2018-01-29T03:11:19.659Z,71.72
2018-01-29T03:13:48.923Z,72.06
2018-01-29T03:16:17.412Z,72.56
2018-01-29T03:18:46.364Z,72.60
2018-01-29T03:21:14.912Z,71.54
2018-01-29T03:23:43.403Z,73.84
2018-01-29T03:26:12.762Z,73.69
2018-01-29T03:28:41.246Z,74.06
2018-01-29T03:31:09.742Z,73.06
2018-01-29T03:33:38.271Z,72.74
2018-01-29T03:36:07.516Z,73.36
2018-01-29T03:38:35.990Z,72.63
2018-01-29T03:41:04.534Z,72.61
2018-01-29T03:43:33.085Z,72.02
2018-01-29T03:46:01.569Z,70.22
2018-01-29T03:48:31.036Z,70.92
2018-01-29T03:50:59.515Z,70.97
2018-01-29T03:53:27.995Z,69.84
2018-01-29T03:55:56.521Z,69.23
2018-01-29T03:58:25.771Z,69.31
2018-01-29T04:00:54.334Z,69.06
2018-01-29T04:03:23.091Z,69.00
2018-01-29T04:05:51.639Z,69.09
2018-01-29T04:08:20.170Z,69.52
2018-01-29T04:10:49.481Z,70.37
2018-01-29T04:13:18.032Z,71.80
2018-01-29T04:15:48.031Z,71.56
2018-01-29T04:18:16.735Z,72.46
2018-01-29T04:20:45.220Z,70.88
2018-01-29T04:23:13.707Z,71.17
2018-01-29T04:25:43.154Z,70.22
2018-01-29T04:28:11.639Z,69.79
2018-01-29T04:30:40.147Z,69.50
2018-01-29T04:33:08.835Z,68.89
2018-01-29T04:35:37.397Z,69.70
2018-01-29T04:38:05.943Z,69.71
2018-01-29T04:40:35.489Z,69.84
2018-01-29T04:43:03.983Z,69.88
2018-01-29T04:45:33.439Z,70.23
2018-01-29T04:48:01.967Z,69.96
2018-01-29T04:50:30.472Z,70.82
2018-01-29T04:52:59.819Z,70.35
2018-01-29T04:55:28.563Z,70.09
2018-01-29T04:57:57.060Z,69.55
2018-01-29T05:00:26.315Z,70.07
2018-01-29T05:02:54.911Z,70.01
2018-01-29T05:05:23.403Z,70.10
2018-01-29T05:07:51.957Z,71.50
2018-01-29T05:10:20.731Z,71.42
2018-01-29T05:12:49.280Z,71.48
2018-01-29T05:15:18.599Z,71.05
2018-01-29T05:17:47.473Z,72.17
2018-01-29T05:20:16.820Z,72.12
2018-01-29T05:22:45.315Z,72.13
2018-01-29T05:25:14.019Z,72.03
2018-01-29T05:27:42.512Z,72.64
2018-01-29T05:30:11.043Z,73.88
2018-01-29T05:32:39.770Z,74.39
2018-01-29T05:38:17.455Z,73.90
2018-01-29T05:40:46.009Z,73.99
2018-01-29T05:43:14.495Z,73.81
2018-01-29T05:45:43.047Z,73.16
2018-01-29T05:48:11.619Z,74.15
2018-01-29T05:50:40.128Z,74.97
2018-01-29T05:53:08.762Z,74.35
2018-01-29T05:55:38.016Z,73.95
2018-01-29T05:58:06.515Z,72.96
2018-01-29T06:00:35.051Z,72.45
2018-01-29T06:03:03.560Z,72.60
2018-01-29T06:05:32.067Z,72.61
2018-01-29T06:08:00.607Z,72.70
2018-01-29T06:10:29.094Z,72.28
2018-01-29T06:12:57.591Z,71.52
2018-01-29T06:15:26.187Z,71.50
2018-01-29T06:17:54.735Z,70.87
2018-01-29T06:20:23.283Z,69.13
2018-01-29T06:22:52.619Z,67.73
2018-01-29T06:25:21.100Z,67.12
2018-01-29T06:27:49.604Z,67.91
2018-01-29T06:30:18.142Z,66.92
2018-01-29T06:32:46.642Z,66.67
2018-01-29T06:35:15.187Z,65.83
2018-01-29T06:37:45.288Z,64.12
2018-01-29T06:40:13.846Z,62.17
2018-01-29T06:42:42.922Z,60.62
2018-01-29T06:45:11.455Z,59.50
2018-01-29T06:47:40.041Z,58.40
2018-01-29T06:50:08.526Z,58.19
2018-01-29T06:52:38.088Z,58.27
2018-01-29T06:55:06.620Z,58.49
2018-01-29T06:57:35.267Z,58.95
2018-01-29T07:00:03.988Z,58.45
2018-01-29T07:02:33.244Z,58.53
2018-01-29T07:05:01.733Z,60.02
2018-01-29T07:07:30.520Z,59.41
2018-01-29T07:09:59.819Z,58.53
2018-01-29T07:12:28.458Z,57.43
2018-01-29T07:14:58.121Z,58.43
2018-01-29T07:17:26.807Z,57.27
2018-01-29T07:19:55.307Z,56.93
2018-01-29T07:22:24.098Z,57.15
2018-01-29T07:24:52.755Z,56.59
2018-01-29T07:27:22.163Z,57.34
2018-01-29T07:29:50.695Z,54.94
2018-01-29T07:32:20.100Z,55.03
2018-01-29T07:34:49.550Z,54.38
2018-01-29T07:37:18.471Z,55.70
2018-01-29T07:39:49.358Z,53.43
2018-01-29T07:42:17.859Z,52.23
2018-01-29T07:44:46.400Z,50.70
2018-01-29T07:47:14.900Z,49.91
2018-01-29T07:49:43.392Z,48.91
2018-01-29T07:52:12.027Z,47.35
2018-01-29T07:54:41.288Z,46.25
2018-01-29T07:57:09.784Z,43.90
2018-01-29T07:59:38.404Z,42.84
2018-01-29T08:02:07.671Z,42.64
2018-01-29T08:04:36.161Z,43.36
2018-01-29T08:07:04.769Z,42.84
2018-01-29T08:09:34.092Z,43.08
2018-01-29T08:12:02.601Z,43.18
2018-01-29T08:14:31.147Z,42.25
2018-01-29T08:16:59.707Z,43.31
2018-01-29T08:19:28.267Z,43.01
2018-01-29T08:21:56.912Z,43.26
2018-01-29T08:24:25.469Z,41.85
2018-01-29T08:26:54.792Z,42.14
2018-01-29T08:29:23.539Z,40.43
2018-01-29T08:31:52.036Z,40.87
2018-01-29T08:34:20.539Z,40.93
2018-01-29T08:36:49.248Z,41.26
2018-01-29T08:39:17.978Z,39.17
2018-01-29T08:41:46.543Z,37.94
2018-01-29T08:44:16.761Z,39.14
2018-01-29T08:46:46.108Z,38.15
2018-01-29T08:49:14.608Z,39.25
2018-01-29T08:51:43.216Z,37.73
2018-01-29T08:54:11.715Z,39.87
2018-01-29T08:56:40.281Z,37.95
2018-01-29T08:59:09.236Z,38.19
2018-01-29T09:01:37.740Z,36.80
2018-01-29T09:04:06.237Z,35.73
2018-01-29T09:06:34.803Z,35.18
2018-01-29T09:09:03.392Z,35.26
2018-01-29T09:11:31.896Z,33.29
2018-01-29T09:14:00.693Z,35.20
2018-01-29T09:16:29.972Z,34.76
2018-01-29T09:18:59.248Z,34.25
2018-01-29T09:21:27.784Z,37.34
2018-01-29T09:23:56.280Z,36.67
2018-01-29T09:26:24.784Z,38.29
2018-01-29T09:28:53.550Z,39.29
2018-01-29T09:31:22.029Z,36.35
2018-01-29T09:33:50.589Z,37.46
2018-01-29T09:36:20.101Z,36.65
2018-01-29T09:38:48.610Z,36.36
2018-01-29T09:41:17.109Z,36.47
2018-01-29T09:43:45.748Z,37.20
2018-01-29T09:46:15.016Z,38.55
2018-01-29T09:48:43.536Z,38.47
2018-01-29T09:51:12.999Z,38.82
2018-01-29T09:53:41.502Z,35.73
2018-01-29T09:56:10.826Z,35.84
2018-01-29T09:58:39.467Z,34.51
2018-01-29T10:01:07.967Z,36.14
2018-01-29T10:03:37.232Z,34.54
2018-01-29T10:06:06.543Z,34.56
2018-01-29T10:08:35.865Z,35.09
2018-01-29T10:11:04.356Z,36.13
2018-01-29T10:13:32.958Z,36.06
2018-01-29T10:16:01.516Z,35.16
2018-01-29T10:18:30.081Z,35.43
2018-01-29T10:20:58.836Z,35.97
2018-01-29T10:23:27.346Z,36.08
2018-01-29T10:25:55.906Z,36.22
2018-01-29T10:28:24.849Z,35.54
2018-01-29T10:30:53.351Z,35.84
2018-01-29T10:33:21.903Z,34.28
2018-01-29T10:35:50.565Z,34.76
2018-01-29T10:38:19.079Z,34.77
2018-01-29T10:40:47.571Z,34.04
2018-01-29T10:43:16.119Z,33.56
2018-01-29T10:45:44.643Z,32.90
2018-01-29T10:48:13.911Z,32.50
2018-01-29T10:50:42.524Z,32.29
2018-01-29T10:53:11.040Z,32.25
2018-01-29T10:55:39.896Z,32.72
2018-01-29T10:58:08.702Z,33.02
2018-01-29T11:00:42.735Z,32.32
2018-01-29T11:03:12.068Z,31.64
2018-01-29T11:05:40.568Z,31.40
2018-01-29T11:08:09.131Z,31.33
2018-01-29T11:10:37.739Z,31.55
2018-01-29T11:13:07.033Z,31.61
2018-01-29T11:15:35.543Z,30.20
2018-01-29T11:18:04.403Z,28.68
2018-01-29T11:20:32.913Z,29.46
2018-01-29T11:23:02.245Z,29.29
2018-01-29T11:25:31.007Z,28.45
2018-01-29T11:28:00.327Z,28.78
2018-01-29T11:30:28.858Z,29.59
2018-01-29T11:32:57.520Z,28.80
2018-01-29T11:35:26.024Z,29.73
2018-01-29T11:37:54.525Z,28.79
2018-01-29T11:40:23.323Z,29.02
2018-01-29T11:42:51.836Z,29.82
2018-01-29T11:45:20.389Z,29.25
2018-01-29T11:47:48.933Z,29.04
2018-01-29T11:50:18.328Z,29.46
2018-01-29T11:52:46.839Z,29.40
2018-01-29T11:55:16.332Z,28.92
2018-01-29T11:57:44.895Z,29.63
2018-01-29T12:00:14.211Z,29.44
2018-01-29T12:02:42.927Z,29.93
2018-01-29T12:05:11.434Z,29.58
2018-01-29T12:07:39.941Z,29.40
2018-01-29T12:10:09.308Z,29.67
2018-01-29T12:12:37.833Z,30.49
2018-01-29T12:15:06.356Z,29.58
2018-01-29T12:17:35.000Z,30.01
2018-01-29T12:20:03.502Z,29.79
2018-01-29T12:22:32.763Z,29.14
2018-01-29T12:25:01.403Z,30.55
2018-01-29T12:27:30.736Z,30.04
2018-01-29T12:29:59.299Z,31.19
2018-01-29T12:32:28.329Z,30.25
2018-01-29T12:34:57.623Z,30.47
2018-01-29T12:37:26.119Z,30.60
2018-01-29T12:39:54.751Z,31.33
2018-01-29T12:42:23.248Z,30.83
2018-01-29T12:44:51.799Z,30.52
2018-01-29T12:47:21.203Z,30.25
2018-01-29T12:49:50.604Z,31.15
2018-01-29T12:52:19.932Z,30.72
2018-01-29T12:54:48.547Z,30.38
2018-01-29T12:57:17.028Z,29.83
2018-01-29T12:59:45.524Z,30.12
2018-01-29T13:02:15.119Z,29.25
2018-01-29T13:04:43.620Z,29.78
2018-01-29T13:07:12.125Z,29.53
2018-01-29T13:09:41.435Z,29.92
2018-01-29T13:12:09.932Z,30.67
2018-01-29T13:14:38.440Z,30.22
2018-01-29T13:17:07.044Z,30.51
2018-01-29T13:19:35.540Z,30.53
2018-01-29T13:22:04.807Z,31.37
2018-01-29T13:24:33.343Z,32.19
2018-01-29T13:27:01.901Z,33.56
2018-01-29T13:29:31.067Z,32.89
2018-01-29T13:31:59.848Z,33.84
2018-01-29T13:34:28.359Z,34.29
2018-01-29T13:36:57.655Z,34.11
2018-01-29T13:39:26.200Z,32.59
2018-01-29T13:41:54.695Z,32.93
2018-01-29T13:44:24.023Z,32.90
2018-01-29T13:46:52.853Z,32.54
2018-01-29T13:49:21.347Z,32.77
2018-01-29T13:51:49.852Z,32.41
2018-01-29T13:54:19.417Z,31.97
2018-01-29T13:56:47.921Z,31.69
2018-01-29T13:59:16.427Z,31.17
2018-01-29T14:01:45.795Z,31.58
2018-01-29T14:04:14.287Z,32.04
2018-01-29T14:06:42.852Z,32.12
2018-01-29T14:09:11.501Z,32.33
2018-01-29T14:11:39.995Z,32.18
2018-01-29T14:14:08.509Z,32.01
2018-01-29T14:16:37.134Z,32.16
2018-01-29T14:19:06.467Z,31.35
2018-01-29T14:21:35.062Z,30.85
2018-01-29T14:24:03.606Z,31.83
2018-01-29T14:26:32.199Z,31.42
2018-01-29T14:29:00.768Z,31.92
2018-01-29T14:31:29.316Z,31.65
2018-01-29T14:33:57.863Z,32.14
2018-01-29T14:36:26.371Z,32.79
2018-01-29T14:38:54.927Z,33.26
2018-01-29T14:41:23.431Z,34.02
2018-01-29T14:43:51.940Z,34.84
2018-01-29T14:46:20.783Z,35.11
2018-01-29T14:48:50.091Z,35.28
2018-01-29T14:51:19.359Z,35.73
2018-01-29T14:53:48.380Z,36.87
2018-01-29T14:56:17.712Z,36.86
2018-01-29T14:58:46.215Z,37.79
2018-01-29T15:01:14.828Z,38.26
2018-01-29T15:03:44.091Z,38.82
2018-01-29T15:06:12.663Z,39.00
2018-01-29T15:08:41.385Z,38.80
2018-01-29T15:11:09.887Z,38.71
2018-01-29T15:13:38.396Z,39.25
2018-01-29T15:16:07.707Z,39.20
2018-01-29T15:18:36.266Z,39.80
2018-01-29T15:21:04.767Z,39.67
2018-01-29T15:23:33.482Z,39.95
2018-01-29T15:26:01.992Z,40.37
2018-01-29T15:28:30.582Z,40.61
2018-01-29T15:30:59.732Z,40.95
2018-01-29T15:33:28.235Z,40.70
2018-01-29T15:35:56.809Z,41.34
2018-01-29T15:38:25.546Z,41.55
2018-01-29T15:40:54.105Z,42.12
2018-01-29T15:43:22.615Z,42.35
2018-01-29T15:45:51.504Z,42.58
2018-01-29T15:48:19.995Z,42.08
2018-01-29T15:50:49.267Z,41.58
2018-01-29T15:53:17.816Z,41.75
2018-01-29T15:55:47.093Z,41.78
2018-01-29T15:58:15.600Z,41.71
2018-01-29T16:00:44.502Z,42.23
2018-01-29T16:03:12.995Z,42.98
2018-01-29T16:05:41.497Z,42.93
2018-01-29T16:08:10.880Z,43.14
2018-01-29T16:10:40.153Z,44.02
2018-01-29T16:13:08.669Z,44.39
2018-01-29T16:15:38.384Z,45.03
2018-01-29T16:18:07.657Z,45.46
2018-01-29T16:20:36.156Z,46.58
2018-01-29T16:23:05.775Z,47.26
2018-01-29T16:25:35.115Z,48.91
2018-01-29T16:28:03.691Z,51.41
2018-01-29T16:30:32.527Z,51.72
2018-01-29T16:33:01.103Z,51.22
2018-01-29T16:35:29.615Z,51.06
2018-01-29T16:37:59.115Z,50.69
2018-01-29T16:40:27.615Z,49.73
2018-01-29T16:42:56.936Z,48.67
2018-01-29T16:45:25.787Z,48.24
2018-01-29T16:47:54.295Z,46.72
2018-01-29T16:50:22.816Z,45.53
2018-01-29T16:52:51.368Z,45.01
2018-01-29T16:55:19.869Z,45.00
2018-01-29T16:57:48.371Z,44.83
2018-01-29T17:00:17.746Z,44.02
2018-01-29T17:02:46.247Z,44.00
2018-01-29T17:05:14.750Z,44.10
2018-01-29T17:07:44.125Z,43.73
2018-01-29T17:10:12.652Z,43.62
2018-01-29T17:12:41.213Z,43.91
2018-01-29T17:15:09.770Z,44.04
2018-01-29T17:17:39.100Z,44.15
2018-01-29T17:20:07.604Z,44.30
2018-01-29T17:22:36.613Z,45.31
2018-01-29T17:25:06.770Z,45.95
2018-01-29T17:27:35.290Z,45.75
2018-01-29T17:30:04.689Z,46.09
2018-01-29T17:32:33.202Z,46.27
2018-01-29T17:35:01.723Z,46.50
2018-01-29T17:37:31.040Z,47.54
2018-01-29T17:39:59.600Z,47.52
2018-01-29T17:42:28.103Z,46.27
2018-01-29T17:44:56.710Z,45.43
2018-01-29T17:47:26.038Z,44.52
2018-01-29T17:49:54.552Z,44.07
2018-01-29T17:52:23.321Z,44.38
2018-01-29T17:54:52.585Z,43.61
2018-01-29T17:57:21.083Z,43.65
2018-01-29T17:59:49.801Z,43.56
2018-01-29T18:02:19.071Z,43.56
2018-01-29T18:04:47.608Z,44.31
2018-01-29T18:07:16.163Z,44.57
2018-01-29T18:09:45.423Z,44.95
2018-01-29T18:12:13.928Z,45.32
2018-01-29T18:14:43.311Z,45.45
2018-01-29T18:17:11.877Z,45.64
2018-01-29T18:19:40.376Z,45.86
2018-01-29T18:22:08.933Z,45.12
2018-01-29T18:24:37.424Z,45.07
2018-01-29T18:27:05.930Z,45.01
2018-01-29T18:29:34.548Z,45.34
2018-01-29T18:32:03.054Z,45.35
2018-01-29T18:34:31.544Z,45.55
2018-01-29T18:37:00.152Z,45.44
2018-01-29T18:39:28.647Z,45.24
2018-01-29T18:41:57.925Z,45.50
2018-01-29T18:44:26.708Z,45.68
2018-01-29T18:46:55.301Z,46.22
2018-01-29T18:49:23.815Z,46.78
2018-01-29T18:51:53.312Z,47.55
2018-01-29T18:54:21.871Z,47.74
2018-01-29T18:56:50.369Z,48.37
2018-01-29T18:59:19.256Z,48.42
2018-01-29T19:01:47.759Z,48.94
2018-01-29T19:04:17.028Z,48.93
2018-01-29T19:06:45.575Z,49.02
2018-01-29T19:09:14.137Z,49.18
2018-01-29T19:11:42.713Z,49.80
2018-01-29T19:14:11.361Z,51.30
2018-01-29T19:16:41.233Z,51.50
2018-01-29T19:19:09.737Z,52.30
2018-01-29T19:21:38.739Z,53.09
2018-01-29T19:24:07.223Z,53.29
2018-01-29T19:26:35.730Z,53.19
2018-01-29T19:29:04.267Z,52.81
2018-01-29T19:31:32.775Z,51.20
2018-01-29T19:34:01.348Z,50.58
2018-01-29T19:36:29.888Z,50.73
2018-01-29T19:38:58.428Z,50.74
2018-01-29T19:41:27.000Z,50.53
2018-01-29T19:43:55.607Z,50.94
2018-01-29T19:46:24.117Z,51.53
2018-01-29T19:48:52.621Z,51.58
2018-01-29T19:51:21.168Z,51.64
2018-01-29T19:53:49.736Z,51.74
2018-01-29T19:56:18.296Z,51.58
2018-01-29T19:58:46.908Z,51.64
2018-01-29T20:01:15.478Z,51.33
2018-01-29T20:03:44.845Z,51.07
2018-01-29T20:06:13.622Z,51.33
2018-01-29T20:08:42.947Z,50.95
2018-01-29T20:11:11.462Z,51.45
2018-01-29T20:13:40.940Z,51.11
2018-01-29T20:16:09.504Z,50.86
2018-01-29T20:18:38.005Z,51.74
2018-01-29T20:21:06.652Z,51.52
2018-01-29T20:23:35.207Z,51.11
2018-01-29T20:26:03.727Z,50.75
2018-01-29T20:28:32.522Z,50.71
2018-01-29T20:31:01.096Z,50.54
2018-01-29T20:33:29.645Z,50.56
2018-01-29T20:35:58.572Z,50.36
2018-01-29T20:38:27.099Z,50.88
2018-01-29T20:40:56.428Z,50.82
2018-01-29T20:43:25.316Z,50.76
2018-01-29T20:45:53.824Z,50.90
2018-01-29T20:48:22.360Z,50.73
2018-01-29T20:50:51.206Z,50.32
2018-01-29T20:53:19.768Z,50.37
2018-01-29T20:55:48.276Z,50.12
2018-01-29T20:58:17.052Z,50.03
2018-01-29T21:00:45.551Z,49.12
2018-01-29T21:03:14.920Z,49.02
2018-01-29T21:05:43.459Z,48.60
2018-01-29T21:08:12.786Z,48.44
2018-01-29T21:10:41.345Z,49.00
2018-01-29T21:13:10.847Z,49.47
2018-01-29T21:15:40.171Z,49.56
2018-01-29T21:18:08.673Z,49.54
2018-01-29T21:20:37.228Z,49.84
2018-01-29T21:23:05.728Z,50.31
2018-01-29T21:25:34.604Z,50.36
2018-01-29T21:28:03.151Z,50.39
2018-01-29T21:30:31.672Z,50.51
2018-01-29T21:33:00.227Z,50.21
2018-01-29T21:35:29.740Z,50.63
2018-01-29T21:37:59.007Z,50.78
2018-01-29T21:40:27.515Z,50.71
2018-01-29T21:42:56.887Z,50.56
2018-01-29T21:45:25.388Z,50.24
2018-01-29T21:47:53.892Z,51.01
2018-01-29T21:50:23.204Z,52.15
2018-01-29T21:52:51.691Z,52.88
2018-01-29T21:55:20.253Z,54.33
2018-01-29T21:57:49.744Z,55.74
2018-01-29T22:00:18.239Z,56.32
2018-01-29T22:02:47.564Z,57.01
2018-01-29T22:05:16.419Z,57.81
2018-01-29T22:07:44.973Z,58.01
2018-01-29T22:10:13.466Z,56.86
2018-01-29T22:12:42.008Z,55.69
2018-01-29T22:15:10.523Z,55.73
2018-01-29T22:17:39.023Z,55.27
2018-01-29T22:20:07.572Z,55.45
2018-01-29T22:22:36.105Z,56.20
2018-01-29T22:25:05.440Z,56.99
2018-01-29T22:27:34.127Z,57.83
2018-01-29T22:30:02.623Z,58.18
2018-01-29T22:32:31.122Z,58.06
2018-01-29T22:34:59.686Z,58.25
2018-01-29T22:37:28.259Z,58.63
2018-01-29T22:39:56.818Z,58.74
2018-01-29T22:42:25.536Z,59.09
2018-01-29T22:44:54.025Z,59.53
2018-01-29T22:47:22.576Z,60.13
2018-01-29T22:49:51.180Z,60.49
2018-01-29T22:52:19.671Z,60.23
2018-01-29T22:54:48.220Z,60.67
2018-01-29T22:57:17.075Z,61.29
2018-01-29T22:59:45.660Z,61.57
2018-01-29T23:02:14.143Z,62.17
2018-01-29T23:04:43.020Z,62.95
2018-01-29T23:07:11.515Z,63.16
2018-01-29T23:09:40.776Z,62.56
2018-01-29T23:12:09.606Z,61.92
2018-01-29T23:14:38.929Z,61.36
2018-01-29T23:17:07.483Z,61.37
2018-01-29T23:19:36.119Z,60.77
2018-01-29T23:22:04.616Z,60.44
2018-01-29T23:24:33.171Z,60.70
2018-01-29T23:27:01.714Z,61.34
2018-01-29T23:29:31.041Z,62.14
2018-01-29T23:31:59.597Z,62.06
2018-01-29T23:34:28.199Z,62.05
2018-01-29T23:36:57.452Z,61.57
2018-01-29T23:39:26.005Z,61.49
2018-01-29T23:41:54.822Z,62.12
2018-01-29T23:44:24.189Z,62.99
2018-01-29T23:46:52.739Z,64.34
2018-01-29T23:49:21.327Z,66.06
2018-01-29T23:51:50.592Z,66.21
2018-01-29T23:54:19.099Z,66.19
2018-01-29T23:56:48.067Z,66.38
2018-01-29T23:59:16.571Z,66.95
